Aviation Digital Data Service (ADDS)

Output produced by METARs form (2118 UTC 18 January 2018)
found at http://aviationweather.gov/adds/metars/
 
METAR text: KMYV 182100Z AUTO 16013KT 4SM BR FEW009 OVC014 12/10 A3002 RMK AO2 T01220100
Conditions at: KMYV (MARYSVILLE , CA, US) observed 2100 UTC 18 January 2018
Temperature: 12.2°C (54°F)
Dewpoint: 10.0°C (50°F) [RH = 86%]
Pressure (altimeter): 30.02 inches Hg (1016.7 mb)
Winds: from the SSE (160 degrees) at 15 MPH (13 knots; 6.8 m/s)
Visibility: 4 miles (6 km)
Ceiling: 1400 feet AGL
Clouds: few clouds at 900 feet AGL
overcast cloud deck at 1400 feet AGL
Weather: BR  (mist)